sensor_id;sensor_type;location;lat;lon;timestamp;temperature;humidity
10873;DHT22;34586;53.616;10.032;2022-11-15T00:01:36;6.40;99.90
10873;DHT22;34586;53.616;10.032;2022-11-15T00:04:06;6.40;99.90
10873;DHT22;34586;53.616;10.032;2022-11-15T00:06:32;6.50;99.90
10873;DHT22;34586;53.616;10.032;2022-11-15T00:08:58;6.30;99.90
10873;DHT22;34586;53.616;10.032;2022-11-15T00:11:24;6.40;99.90
10873;DHT22;34586;53.616;10.032;2022-11-15T00:13:50;6.30;99.90
10873;DHT22;34586;53.616;10.032;2022-11-15T00:16:15;6.40;99.90
10873;DHT22;34586;53.616;10.032;2022-11-15T00:18:41;6.30;99.90
10873;DHT22;34586;53.616;10.032;2022-11-15T00:21:10;6.30;99.90
10873;DHT22;34586;53.616;10.032;2022-11-15T00:23:36;6.30;99.90
10873;DHT22;34586;53.616;10.032;2022-11-15T00:26:02;6.30;99.90
10873;DHT22;34586;53.616;10.032;2022-11-15T00:28:28;6.20;99.90
10873;DHT22;34586;53.616;10.032;2022-11-15T00:30:54;6.30;99.90
10873;DHT22;34586;53.616;10.032;2022-11-15T00:33:19;6.30;99.90
10873;DHT22;34586;53.616;10.032;2022-11-15T00:35:45;6.20;99.90
10873;DHT22;34586;53.616;10.032;2022-11-15T00:38:10;6.30;99.90
10873;DHT22;34586;53.616;10.032;2022-11-15T00:40:36;6.40;99.90
10873;DHT22;34586;53.616;10.032;2022-11-15T00:43:02;6.50;99.90
10873;DHT22;34586;53.616;10.032;2022-11-15T00:45:27;6.50;99.90
10873;DHT22;34586;53.616;10.032;2022-11-15T00:47:53;6.50;99.90
10873;DHT22;34586;53.616;10.032;2022-11-15T00:50:18;6.50;99.90
10873;DHT22;34586;53.616;10.032;2022-11-15T00:52:44;6.40;99.90
10873;DHT22;34586;53.616;10.032;2022-11-15T00:55:17;6.40;99.90
10873;DHT22;34586;53.616;10.032;2022-11-15T00:57:43;6.40;99.90
10873;DHT22;34586;53.616;10.032;2022-11-15T01:00:10;6.20;99.90
10873;DHT22;34586;53.616;10.032;2022-11-15T01:02:35;6.30;99.90
10873;DHT22;34586;53.616;10.032;2022-11-15T01:05:01;6.20;99.90
10873;DHT22;34586;53.616;10.032;2022-11-15T01:07:27;6.20;99.90
10873;DHT22;34586;53.616;10.032;2022-11-15T01:09:52;6.10;99.90
10873;DHT22;34586;53.616;10.032;2022-11-15T01:12:18;6.10;99.90
10873;DHT22;34586;53.616;10.032;2022-11-15T01:14:44;6.10;99.90
10873;DHT22;34586;53.616;10.032;2022-11-15T01:17:09;6.20;99.90
10873;DHT22;34586;53.616;10.032;2022-11-15T01:19:35;6.30;99.90
10873;DHT22;34586;53.616;10.032;2022-11-15T01:22:01;6.30;99.90
10873;DHT22;34586;53.616;10.032;2022-11-15T01:24:26;6.30;99.90
10873;DHT22;34586;53.616;10.032;2022-11-15T01:26:52;6.30;99.90
10873;DHT22;34586;53.616;10.032;2022-11-15T01:29:18;6.20;99.90
10873;DHT22;34586;53.616;10.032;2022-11-15T01:31:43;6.20;99.90
10873;DHT22;34586;53.616;10.032;2022-11-15T01:34:09;6.30;99.90
10873;DHT22;34586;53.616;10.032;2022-11-15T01:36:34;6.20;99.90
10873;DHT22;34586;53.616;10.032;2022-11-15T01:39:00;6.20;99.90
10873;DHT22;34586;53.616;10.032;2022-11-15T01:41:31;6.10;99.90
10873;DHT22;34586;53.616;10.032;2022-11-15T01:46:57;6.00;99.90
10873;DHT22;34586;53.616;10.032;2022-11-15T01:49:27;6.00;99.90
10873;DHT22;34586;53.616;10.032;2022-11-15T01:51:55;5.90;99.90
10873;DHT22;34586;53.616;10.032;2022-11-15T01:54:23;5.90;99.90
10873;DHT22;34586;53.616;10.032;2022-11-15T01:56:53;5.80;99.90
10873;DHT22;34586;53.616;10.032;2022-11-15T01:59:22;5.80;99.90
10873;DHT22;34586;53.616;10.032;2022-11-15T02:01:48;5.80;99.90
10873;DHT22;34586;53.616;10.032;2022-11-15T02:04:17;5.70;99.90
10873;DHT22;34586;53.616;10.032;2022-11-15T02:06:45;5.70;99.90
10873;DHT22;34586;53.616;10.032;2022-11-15T02:09:13;5.70;99.90
10873;DHT22;34586;53.616;10.032;2022-11-15T02:11:38;5.70;99.90
10873;DHT22;34586;53.616;10.032;2022-11-15T02:14:05;5.70;99.90
10873;DHT22;34586;53.616;10.032;2022-11-15T02:24:54;5.60;99.90
10873;DHT22;34586;53.616;10.032;2022-11-15T02:30:49;5.50;99.90
10873;DHT22;34586;53.616;10.032;2022-11-15T02:33:26;5.50;99.90
10873;DHT22;34586;53.616;10.032;2022-11-15T02:36:02;5.40;99.90
10873;DHT22;34586;53.616;10.032;2022-11-15T02:41:15;5.40;99.90
10873;DHT22;34586;53.616;10.032;2022-11-15T02:43:59;5.30;99.90
10873;DHT22;34586;53.616;10.032;2022-11-15T02:46:45;5.40;99.90
10873;DHT22;34586;53.616;10.032;2022-11-15T02:49:33;5.40;99.90
10873;DHT22;34586;53.616;10.032;2022-11-15T02:52:00;5.50;99.90
10873;DHT22;34586;53.616;10.032;2022-11-15T02:54:30;5.40;99.90
10873;DHT22;34586;53.616;10.032;2022-11-15T02:57:02;5.40;99.90
10873;DHT22;34586;53.616;10.032;2022-11-15T02:59:43;5.40;99.90
10873;DHT22;34586;53.616;10.032;2022-11-15T03:02:20;5.40;99.90
10873;DHT22;34586;53.616;10.032;2022-11-15T03:16:18;5.40;99.90
10873;DHT22;34586;53.616;10.032;2022-11-15T03:18:47;5.50;99.90
10873;DHT22;34586;53.616;10.032;2022-11-15T03:21:16;5.50;99.90
10873;DHT22;34586;53.616;10.032;2022-11-15T03:23:44;5.40;99.90
10873;DHT22;34586;53.616;10.032;2022-11-15T03:26:14;5.50;99.90
10873;DHT22;34586;53.616;10.032;2022-11-15T03:28:50;5.50;99.90
10873;DHT22;34586;53.616;10.032;2022-11-15T03:31:18;5.50;99.90
10873;DHT22;34586;53.616;10.032;2022-11-15T03:34:05;5.50;99.90
10873;DHT22;34586;53.616;10.032;2022-11-15T03:36:34;5.50;99.90
10873;DHT22;34586;53.616;10.032;2022-11-15T03:39:03;5.50;99.90
10873;DHT22;34586;53.616;10.032;2022-11-15T03:49:52;5.50;99.90
10873;DHT22;34586;53.616;10.032;2022-11-15T03:52:20;5.60;99.90
10873;DHT22;34586;53.616;10.032;2022-11-15T03:54:54;5.60;99.90
10873;DHT22;34586;53.616;10.032;2022-11-15T03:57:19;5.60;99.90
10873;DHT22;34586;53.616;10.032;2022-11-15T03:59:45;5.60;99.90
10873;DHT22;34586;53.616;10.032;2022-11-15T04:02:12;5.70;99.90
10873;DHT22;34586;53.616;10.032;2022-11-15T04:04:37;5.70;99.90
10873;DHT22;34586;53.616;10.032;2022-11-15T04:07:03;5.70;99.90
10873;DHT22;34586;53.616;10.032;2022-11-15T04:09:28;5.70;99.90
10873;DHT22;34586;53.616;10.032;2022-11-15T04:11:54;5.70;99.90
10873;DHT22;34586;53.616;10.032;2022-11-15T04:14:20;5.80;99.90
10873;DHT22;34586;53.616;10.032;2022-11-15T04:16:45;5.70;99.90
10873;DHT22;34586;53.616;10.032;2022-11-15T04:19:11;5.80;99.90
10873;DHT22;34586;53.616;10.032;2022-11-15T04:21:55;5.80;99.90
10873;DHT22;34586;53.616;10.032;2022-11-15T04:24:39;5.70;99.90
10873;DHT22;34586;53.616;10.032;2022-11-15T04:27:05;5.90;99.90
10873;DHT22;34586;53.616;10.032;2022-11-15T04:29:30;5.70;99.90
10873;DHT22;34586;53.616;10.032;2022-11-15T04:32:04;5.70;99.90
10873;DHT22;34586;53.616;10.032;2022-11-15T04:34:30;5.70;99.90
10873;DHT22;34586;53.616;10.032;2022-11-15T04:36:55;5.80;99.90
10873;DHT22;34586;53.616;10.032;2022-11-15T04:39:40;5.80;99.90
10873;DHT22;34586;53.616;10.032;2022-11-15T04:42:06;5.90;99.90
10873;DHT22;34586;53.616;10.032;2022-11-15T04:44:32;5.90;99.90
10873;DHT22;34586;53.616;10.032;2022-11-15T04:46:58;6.00;99.90
10873;DHT22;34586;53.616;10.032;2022-11-15T04:49:24;6.10;99.90
10873;DHT22;34586;53.616;10.032;2022-11-15T04:51:49;6.10;99.90
10873;DHT22;34586;53.616;10.032;2022-11-15T04:54:15;6.10;99.90
10873;DHT22;34586;53.616;10.032;2022-11-15T04:56:40;6.20;99.90
10873;DHT22;34586;53.616;10.032;2022-11-15T04:59:06;6.30;99.90
10873;DHT22;34586;53.616;10.032;2022-11-15T05:01:31;6.30;99.90
10873;DHT22;34586;53.616;10.032;2022-11-15T05:03:57;6.40;99.90
10873;DHT22;34586;53.616;10.032;2022-11-15T05:06:41;6.50;99.90
10873;DHT22;34586;53.616;10.032;2022-11-15T05:09:07;6.50;99.90
10873;DHT22;34586;53.616;10.032;2022-11-15T05:11:32;6.50;99.90
10873;DHT22;34586;53.616;10.032;2022-11-15T05:13:58;6.60;99.90
10873;DHT22;34586;53.616;10.032;2022-11-15T05:16:23;6.50;99.90
10873;DHT22;34586;53.616;10.032;2022-11-15T05:18:53;6.60;99.90
10873;DHT22;34586;53.616;10.032;2022-11-15T05:21:19;6.60;99.90
10873;DHT22;34586;53.616;10.032;2022-11-15T05:23:45;6.60;99.90
10873;DHT22;34586;53.616;10.032;2022-11-15T05:26:12;6.60;99.90
10873;DHT22;34586;53.616;10.032;2022-11-15T05:28:37;6.60;99.90
10873;DHT22;34586;53.616;10.032;2022-11-15T05:31:08;6.70;99.90
10873;DHT22;34586;53.616;10.032;2022-11-15T05:33:35;6.60;99.90
10873;DHT22;34586;53.616;10.032;2022-11-15T05:36:37;6.70;99.90
10873;DHT22;34586;53.616;10.032;2022-11-15T05:39:04;6.70;99.90
10873;DHT22;34586;53.616;10.032;2022-11-15T05:41:35;6.80;99.90
10873;DHT22;34586;53.616;10.032;2022-11-15T05:44:03;6.80;99.90
10873;DHT22;34586;53.616;10.032;2022-11-15T05:46:30;6.90;99.90
10873;DHT22;34586;53.616;10.032;2022-11-15T05:48:56;7.00;99.90
10873;DHT22;34586;53.616;10.032;2022-11-15T05:51:22;7.00;99.90
10873;DHT22;34586;53.616;10.032;2022-11-15T05:53:49;7.10;99.90
10873;DHT22;34586;53.616;10.032;2022-11-15T05:56:15;7.10;99.90
10873;DHT22;34586;53.616;10.032;2022-11-15T05:58:42;7.10;99.90
10873;DHT22;34586;53.616;10.032;2022-11-15T06:01:08;7.20;99.90
10873;DHT22;34586;53.616;10.032;2022-11-15T06:03:33;7.20;99.90
10873;DHT22;34586;53.616;10.032;2022-11-15T06:05:59;7.30;99.90
10873;DHT22;34586;53.616;10.032;2022-11-15T06:08:24;7.30;99.90
10873;DHT22;34586;53.616;10.032;2022-11-15T06:10:50;7.40;99.90
10873;DHT22;34586;53.616;10.032;2022-11-15T06:13:16;7.40;99.90
10873;DHT22;34586;53.616;10.032;2022-11-15T06:15:41;7.40;99.90
10873;DHT22;34586;53.616;10.032;2022-11-15T06:18:07;7.40;99.90
10873;DHT22;34586;53.616;10.032;2022-11-15T06:20:32;7.40;99.90
10873;DHT22;34586;53.616;10.032;2022-11-15T06:22:59;7.40;99.90
10873;DHT22;34586;53.616;10.032;2022-11-15T06:25:26;7.40;99.90
10873;DHT22;34586;53.616;10.032;2022-11-15T06:27:56;7.40;99.90
10873;DHT22;34586;53.616;10.032;2022-11-15T06:30:23;7.40;99.90
10873;DHT22;34586;53.616;10.032;2022-11-15T06:32:49;7.40;99.90
10873;DHT22;34586;53.616;10.032;2022-11-15T06:35:15;7.40;99.90
10873;DHT22;34586;53.616;10.032;2022-11-15T06:37:41;7.40;99.90
10873;DHT22;34586;53.616;10.032;2022-11-15T06:40:08;7.40;99.90
10873;DHT22;34586;53.616;10.032;2022-11-15T06:42:34;7.50;99.90
10873;DHT22;34586;53.616;10.032;2022-11-15T06:44:59;7.50;99.90
10873;DHT22;34586;53.616;10.032;2022-11-15T06:47:25;7.60;99.90
10873;DHT22;34586;53.616;10.032;2022-11-15T06:49:50;7.60;99.90
10873;DHT22;34586;53.616;10.032;2022-11-15T06:52:16;7.60;99.90
10873;DHT22;34586;53.616;10.032;2022-11-15T06:54:44;7.60;99.90
10873;DHT22;34586;53.616;10.032;2022-11-15T06:57:09;7.60;99.90
10873;DHT22;34586;53.616;10.032;2022-11-15T06:59:36;7.60;99.90
10873;DHT22;34586;53.616;10.032;2022-11-15T07:02:02;7.60;99.90
10873;DHT22;34586;53.616;10.032;2022-11-15T07:04:27;7.60;99.90
10873;DHT22;34586;53.616;10.032;2022-11-15T07:06:53;7.60;99.90
10873;DHT22;34586;53.616;10.032;2022-11-15T07:09:18;7.60;99.90
10873;DHT22;34586;53.616;10.032;2022-11-15T07:11:44;7.70;99.90
10873;DHT22;34586;53.616;10.032;2022-11-15T07:14:09;7.80;99.90
10873;DHT22;34586;53.616;10.032;2022-11-15T07:16:36;7.80;99.90
10873;DHT22;34586;53.616;10.032;2022-11-15T07:19:02;7.80;99.90
10873;DHT22;34586;53.616;10.032;2022-11-15T07:21:27;7.80;99.90
10873;DHT22;34586;53.616;10.032;2022-11-15T07:23:53;7.90;99.90
10873;DHT22;34586;53.616;10.032;2022-11-15T07:26:19;7.90;99.90
10873;DHT22;34586;53.616;10.032;2022-11-15T07:28:44;7.90;99.90
10873;DHT22;34586;53.616;10.032;2022-11-15T07:31:11;7.90;99.90
10873;DHT22;34586;53.616;10.032;2022-11-15T07:33:36;7.90;99.90
10873;DHT22;34586;53.616;10.032;2022-11-15T07:36:04;8.00;99.90
10873;DHT22;34586;53.616;10.032;2022-11-15T07:38:30;8.00;99.90
10873;DHT22;34586;53.616;10.032;2022-11-15T07:40:57;8.00;99.90
10873;DHT22;34586;53.616;10.032;2022-11-15T07:43:23;8.10;99.90
10873;DHT22;34586;53.616;10.032;2022-11-15T07:45:49;8.10;99.90
10873;DHT22;34586;53.616;10.032;2022-11-15T07:48:15;8.10;99.90
10873;DHT22;34586;53.616;10.032;2022-11-15T07:50:41;8.10;99.90
10873;DHT22;34586;53.616;10.032;2022-11-15T07:53:08;8.10;99.90
10873;DHT22;34586;53.616;10.032;2022-11-15T07:55:34;8.20;99.90
10873;DHT22;34586;53.616;10.032;2022-11-15T07:58:10;8.20;99.90
10873;DHT22;34586;53.616;10.032;2022-11-15T08:00:37;8.20;99.90
10873;DHT22;34586;53.616;10.032;2022-11-15T08:03:08;8.20;99.90
10873;DHT22;34586;53.616;10.032;2022-11-15T08:05:34;8.30;99.90
10873;DHT22;34586;53.616;10.032;2022-11-15T08:08:00;8.30;99.90
10873;DHT22;34586;53.616;10.032;2022-11-15T08:10:27;8.40;99.90
10873;DHT22;34586;53.616;10.032;2022-11-15T08:13:07;8.40;99.90
10873;DHT22;34586;53.616;10.032;2022-11-15T08:15:34;8.40;99.90
10873;DHT22;34586;53.616;10.032;2022-11-15T08:18:02;8.50;99.90
10873;DHT22;34586;53.616;10.032;2022-11-15T08:20:30;8.50;99.90
10873;DHT22;34586;53.616;10.032;2022-11-15T08:22:57;8.50;99.90
10873;DHT22;34586;53.616;10.032;2022-11-15T08:25:23;8.40;99.90
10873;DHT22;34586;53.616;10.032;2022-11-15T08:27:52;8.50;99.90
10873;DHT22;34586;53.616;10.032;2022-11-15T08:30:18;8.50;99.90
10873;DHT22;34586;53.616;10.032;2022-11-15T08:32:44;8.40;99.90
10873;DHT22;34586;53.616;10.032;2022-11-15T08:35:10;8.40;99.90
10873;DHT22;34586;53.616;10.032;2022-11-15T08:37:35;8.40;99.90
10873;DHT22;34586;53.616;10.032;2022-11-15T08:40:01;8.40;99.90
10873;DHT22;34586;53.616;10.032;2022-11-15T08:42:27;8.40;99.90
10873;DHT22;34586;53.616;10.032;2022-11-15T08:44:52;8.50;99.90
10873;DHT22;34586;53.616;10.032;2022-11-15T08:47:18;8.60;99.90
10873;DHT22;34586;53.616;10.032;2022-11-15T08:49:43;8.70;99.90
10873;DHT22;34586;53.616;10.032;2022-11-15T08:52:09;8.70;99.90
10873;DHT22;34586;53.616;10.032;2022-11-15T08:54:35;8.70;99.90
10873;DHT22;34586;53.616;10.032;2022-11-15T08:57:00;8.70;99.90
10873;DHT22;34586;53.616;10.032;2022-11-15T08:59:26;8.80;99.90
10873;DHT22;34586;53.616;10.032;2022-11-15T09:01:51;8.80;99.90
10873;DHT22;34586;53.616;10.032;2022-11-15T09:04:17;8.70;99.90
10873;DHT22;34586;53.616;10.032;2022-11-15T09:06:42;8.80;99.90
10873;DHT22;34586;53.616;10.032;2022-11-15T09:09:08;8.80;99.90
10873;DHT22;34586;53.616;10.032;2022-11-15T09:11:34;8.80;99.90
10873;DHT22;34586;53.616;10.032;2022-11-15T09:13:59;8.80;99.90
10873;DHT22;34586;53.616;10.032;2022-11-15T09:16:25;8.80;99.90
10873;DHT22;34586;53.616;10.032;2022-11-15T09:18:51;8.80;99.90
10873;DHT22;34586;53.616;10.032;2022-11-15T09:21:17;8.90;99.90
10873;DHT22;34586;53.616;10.032;2022-11-15T09:23:43;9.00;99.90
10873;DHT22;34586;53.616;10.032;2022-11-15T09:26:08;8.90;99.90
10873;DHT22;34586;53.616;10.032;2022-11-15T09:28:35;9.00;99.90
10873;DHT22;34586;53.616;10.032;2022-11-15T09:31:04;9.00;99.90
10873;DHT22;34586;53.616;10.032;2022-11-15T09:33:30;9.10;99.90
10873;DHT22;34586;53.616;10.032;2022-11-15T09:36:01;9.10;99.90
10873;DHT22;34586;53.616;10.032;2022-11-15T09:38:28;9.20;99.90
10873;DHT22;34586;53.616;10.032;2022-11-15T09:49:45;9.60;99.90
10873;DHT22;34586;53.616;10.032;2022-11-15T09:52:13;9.60;44.70
10873;DHT22;34586;53.616;10.032;2022-11-15T09:54:41;9.80;72.10
10873;DHT22;34586;53.616;10.032;2022-11-15T10:00:07;10.00;6.80
10873;DHT22;34586;53.616;10.032;2022-11-15T10:02:46;9.90;1.00
10873;DHT22;34586;53.616;10.032;2022-11-15T10:05:20;10.00;50.50
10873;DHT22;34586;53.616;10.032;2022-11-15T10:12:57;10.20;30.00
10873;DHT22;34586;53.616;10.032;2022-11-15T10:15:24;10.30;17.30
10873;DHT22;34586;53.616;10.032;2022-11-15T10:21:00;10.40;4.90
10873;DHT22;34586;53.616;10.032;2022-11-15T10:23:28;10.40;1.00
10873;DHT22;34586;53.616;10.032;2022-11-15T10:25:57;10.50;1.00
10873;DHT22;34586;53.616;10.032;2022-11-15T10:28:28;10.40;1.00
10873;DHT22;34586;53.616;10.032;2022-11-15T10:30:58;10.50;1.00
10873;DHT22;34586;53.616;10.032;2022-11-15T10:33:34;10.50;1.00
10873;DHT22;34586;53.616;10.032;2022-11-15T10:41:39;10.50;1.00
10873;DHT22;34586;53.616;10.032;2022-11-15T10:44:10;10.60;1.00
10873;DHT22;34586;53.616;10.032;2022-11-15T10:46:40;10.60;14.60
10873;DHT22;34586;53.616;10.032;2022-11-15T10:49:14;10.60;5.30
10873;DHT22;34586;53.616;10.032;2022-11-15T10:51:58;10.60;15.80
10873;DHT22;34586;53.616;10.032;2022-11-15T10:54:44;10.60;12.90
10873;DHT22;34586;53.616;10.032;2022-11-15T10:57:23;10.60;10.60
10873;DHT22;34586;53.616;10.032;2022-11-15T10:59:55;10.60;37.20
10873;DHT22;34586;53.616;10.032;2022-11-15T11:05:05;10.70;65.00
10873;DHT22;34586;53.616;10.032;2022-11-15T11:07:34;10.70;77.60
10873;DHT22;34586;53.616;10.032;2022-11-15T11:10:21;10.70;61.30
10873;DHT22;34586;53.616;10.032;2022-11-15T11:12:46;10.80;46.40
10873;DHT22;34586;53.616;10.032;2022-11-15T11:15:14;10.90;65.30
10873;DHT22;34586;53.616;10.032;2022-11-15T11:20:34;11.10;38.10
10873;DHT22;34586;53.616;10.032;2022-11-15T11:29:01;11.10;16.60
10873;DHT22;34586;53.616;10.032;2022-11-15T11:35:00;11.20;26.00
10873;DHT22;34586;53.616;10.032;2022-11-15T11:37:54;11.20;28.40
10873;DHT22;34586;53.616;10.032;2022-11-15T11:40:37;11.30;1.00
10873;DHT22;34586;53.616;10.032;2022-11-15T11:46:24;11.30;1.00
10873;DHT22;34586;53.616;10.032;2022-11-15T11:49:01;11.30;1.00
10873;DHT22;34586;53.616;10.032;2022-11-15T11:54:05;11.40;1.00
10873;DHT22;34586;53.616;10.032;2022-11-15T11:56:36;11.50;1.00
10873;DHT22;34586;53.616;10.032;2022-11-15T11:59:31;11.50;1.00
10873;DHT22;34586;53.616;10.032;2022-11-15T12:02:02;11.40;1.00
10873;DHT22;34586;53.616;10.032;2022-11-15T12:04:40;11.40;1.00
10873;DHT22;34586;53.616;10.032;2022-11-15T12:07:21;11.40;1.00
10873;DHT22;34586;53.616;10.032;2022-11-15T12:12:59;11.60;1.00
10873;DHT22;34586;53.616;10.032;2022-11-15T12:15:32;11.60;1.00
10873;DHT22;34586;53.616;10.032;2022-11-15T12:18:01;11.60;1.00
10873;DHT22;34586;53.616;10.032;2022-11-15T12:20:34;11.50;1.00
10873;DHT22;34586;53.616;10.032;2022-11-15T12:28:19;11.90;1.00
10873;DHT22;34586;53.616;10.032;2022-11-15T12:30:54;12.00;1.00
10873;DHT22;34586;53.616;10.032;2022-11-15T12:39:05;12.10;1.00
10873;DHT22;34586;53.616;10.032;2022-11-15T12:41:32;12.10;1.00
10873;DHT22;34586;53.616;10.032;2022-11-15T12:43:58;12.20;1.00
10873;DHT22;34586;53.616;10.032;2022-11-15T12:49:02;12.20;1.00
10873;DHT22;34586;53.616;10.032;2022-11-15T12:59:52;12.20;1.00
10873;DHT22;34586;53.616;10.032;2022-11-15T13:02:41;12.20;1.00
10873;DHT22;34586;53.616;10.032;2022-11-15T13:17:43;12.10;1.00
10873;DHT22;34586;53.616;10.032;2022-11-15T13:33:16;12.10;1.00
10873;DHT22;34586;53.616;10.032;2022-11-15T13:35:47;12.10;1.00
10873;DHT22;34586;53.616;10.032;2022-11-15T13:38:27;12.10;1.00
10873;DHT22;34586;53.616;10.032;2022-11-15T13:40:53;12.00;1.00
10873;DHT22;34586;53.616;10.032;2022-11-15T13:48:44;12.10;1.00
10873;DHT22;34586;53.616;10.032;2022-11-15T13:53:50;11.90;1.00
10873;DHT22;34586;53.616;10.032;2022-11-15T13:56:18;11.90;1.00
10873;DHT22;34586;53.616;10.032;2022-11-15T13:58:45;12.00;1.00
10873;DHT22;34586;53.616;10.032;2022-11-15T14:01:17;12.00;1.00
10873;DHT22;34586;53.616;10.032;2022-11-15T14:03:54;12.00;1.00
10873;DHT22;34586;53.616;10.032;2022-11-15T14:06:23;12.10;1.00
10873;DHT22;34586;53.616;10.032;2022-11-15T14:11:48;12.10;1.00
10873;DHT22;34586;53.616;10.032;2022-11-15T14:14:14;12.00;1.00
10873;DHT22;34586;53.616;10.032;2022-11-15T14:16:43;12.00;1.00
10873;DHT22;34586;53.616;10.032;2022-11-15T14:19:12;12.00;1.00
10873;DHT22;34586;53.616;10.032;2022-11-15T14:22:08;12.00;1.00
10873;DHT22;34586;53.616;10.032;2022-11-15T14:24:33;11.90;1.00
10873;DHT22;34586;53.616;10.032;2022-11-15T14:29:41;11.80;1.00
10873;DHT22;34586;53.616;10.032;2022-11-15T14:32:26;11.80;11.90
10873;DHT22;34586;53.616;10.032;2022-11-15T14:35:00;11.80;11.90
10873;DHT22;34586;53.616;10.032;2022-11-15T14:37:28;11.70;31.70
10873;DHT22;34586;53.616;10.032;2022-11-15T14:39:54;11.70;49.90
10873;DHT22;34586;53.616;10.032;2022-11-15T14:42:22;11.60;52.60
10873;DHT22;34586;53.616;10.032;2022-11-15T14:44:47;11.60;64.80
10873;DHT22;34586;53.616;10.032;2022-11-15T14:47:13;11.50;74.90
10873;DHT22;34586;53.616;10.032;2022-11-15T14:49:39;11.40;83.10
10873;DHT22;34586;53.616;10.032;2022-11-15T14:52:22;11.50;91.20
10873;DHT22;34586;53.616;10.032;2022-11-15T14:54:48;11.50;92.80
10873;DHT22;34586;53.616;10.032;2022-11-15T14:57:14;11.40;93.20
10873;DHT22;34586;53.616;10.032;2022-11-15T14:59:40;11.30;97.90
10873;DHT22;34586;53.616;10.032;2022-11-15T15:02:20;11.40;90.30
10873;DHT22;34586;53.616;10.032;2022-11-15T15:04:46;11.30;99.90
10873;DHT22;34586;53.616;10.032;2022-11-15T15:07:12;11.20;99.90
10873;DHT22;34586;53.616;10.032;2022-11-15T15:09:38;11.20;99.90
10873;DHT22;34586;53.616;10.032;2022-11-15T15:12:05;11.10;99.90
10873;DHT22;34586;53.616;10.032;2022-11-15T15:14:32;11.00;99.90
10873;DHT22;34586;53.616;10.032;2022-11-15T15:16:57;11.00;99.90
10873;DHT22;34586;53.616;10.032;2022-11-15T15:19:23;11.00;99.90
10873;DHT22;34586;53.616;10.032;2022-11-15T15:21:49;10.90;99.90
10873;DHT22;34586;53.616;10.032;2022-11-15T15:24:14;10.90;99.90
10873;DHT22;34586;53.616;10.032;2022-11-15T15:26:40;10.80;99.90
10873;DHT22;34586;53.616;10.032;2022-11-15T15:29:06;10.70;99.90
10873;DHT22;34586;53.616;10.032;2022-11-15T15:31:34;10.80;99.90
10873;DHT22;34586;53.616;10.032;2022-11-15T15:34:00;10.70;99.90
10873;DHT22;34586;53.616;10.032;2022-11-15T15:36:25;10.70;99.90
10873;DHT22;34586;53.616;10.032;2022-11-15T15:38:51;10.50;99.90
10873;DHT22;34586;53.616;10.032;2022-11-15T15:41:18;10.50;99.90
10873;DHT22;34586;53.616;10.032;2022-11-15T15:43:44;10.40;99.90
10873;DHT22;34586;53.616;10.032;2022-11-15T15:46:14;10.40;99.90
10873;DHT22;34586;53.616;10.032;2022-11-15T15:48:40;10.30;99.90
10873;DHT22;34586;53.616;10.032;2022-11-15T15:51:06;10.30;99.90
10873;DHT22;34586;53.616;10.032;2022-11-15T15:53:32;10.20;99.90
10873;DHT22;34586;53.616;10.032;2022-11-15T15:55:57;10.10;99.90
10873;DHT22;34586;53.616;10.032;2022-11-15T15:58:23;10.10;99.90
10873;DHT22;34586;53.616;10.032;2022-11-15T16:00:49;10.10;99.90
10873;DHT22;34586;53.616;10.032;2022-11-15T16:03:14;10.00;99.90
10873;DHT22;34586;53.616;10.032;2022-11-15T16:05:40;10.00;99.90
10873;DHT22;34586;53.616;10.032;2022-11-15T16:08:07;10.00;99.90
10873;DHT22;34586;53.616;10.032;2022-11-15T16:10:34;10.00;99.90
10873;DHT22;34586;53.616;10.032;2022-11-15T16:13:00;10.00;99.90
10873;DHT22;34586;53.616;10.032;2022-11-15T16:15:28;10.00;99.90
10873;DHT22;34586;53.616;10.032;2022-11-15T16:17:56;10.10;99.90
10873;DHT22;34586;53.616;10.032;2022-11-15T16:20:38;10.00;99.90
10873;DHT22;34586;53.616;10.032;2022-11-15T16:23:09;10.10;99.90
10873;DHT22;34586;53.616;10.032;2022-11-15T16:25:55;10.10;99.90
10873;DHT22;34586;53.616;10.032;2022-11-15T16:28:24;10.10;99.90
10873;DHT22;34586;53.616;10.032;2022-11-15T16:31:08;10.20;99.90
10873;DHT22;34586;53.616;10.032;2022-11-15T16:33:34;10.20;99.90
10873;DHT22;34586;53.616;10.032;2022-11-15T16:36:01;10.20;99.90
10873;DHT22;34586;53.616;10.032;2022-11-15T16:38:26;10.30;99.90
10873;DHT22;34586;53.616;10.032;2022-11-15T16:40:52;10.40;99.90
10873;DHT22;34586;53.616;10.032;2022-11-15T16:43:17;10.40;99.90
10873;DHT22;34586;53.616;10.032;2022-11-15T16:45:43;10.40;99.90
10873;DHT22;34586;53.616;10.032;2022-11-15T16:48:26;10.40;99.90
10873;DHT22;34586;53.616;10.032;2022-11-15T16:50:56;10.50;99.90
10873;DHT22;34586;53.616;10.032;2022-11-15T16:53:22;10.50;99.90
10873;DHT22;34586;53.616;10.032;2022-11-15T16:55:48;10.30;99.90
10873;DHT22;34586;53.616;10.032;2022-11-15T16:58:13;10.50;99.90
10873;DHT22;34586;53.616;10.032;2022-11-15T17:00:39;10.50;99.90
10873;DHT22;34586;53.616;10.032;2022-11-15T17:03:05;10.50;99.90
10873;DHT22;34586;53.616;10.032;2022-11-15T17:05:31;10.50;99.90
10873;DHT22;34586;53.616;10.032;2022-11-15T17:07:57;10.40;99.90
10873;DHT22;34586;53.616;10.032;2022-11-15T17:10:24;10.30;99.90
10873;DHT22;34586;53.616;10.032;2022-11-15T17:12:51;10.30;99.90
10873;DHT22;34586;53.616;10.032;2022-11-15T17:15:17;10.20;99.90
10873;DHT22;34586;53.616;10.032;2022-11-15T17:17:43;10.10;99.90
10873;DHT22;34586;53.616;10.032;2022-11-15T17:20:17;10.10;99.90
10873;DHT22;34586;53.616;10.032;2022-11-15T17:22:43;10.00;99.90
10873;DHT22;34586;53.616;10.032;2022-11-15T17:25:09;10.00;99.90
10873;DHT22;34586;53.616;10.032;2022-11-15T17:27:35;9.90;99.90
10873;DHT22;34586;53.616;10.032;2022-11-15T17:30:01;9.80;99.90
10873;DHT22;34586;53.616;10.032;2022-11-15T17:32:26;9.90;99.90
10873;DHT22;34586;53.616;10.032;2022-11-15T17:34:52;9.90;99.90
10873;DHT22;34586;53.616;10.032;2022-11-15T17:37:17;9.90;99.90
10873;DHT22;34586;53.616;10.032;2022-11-15T17:39:43;9.90;99.90
10873;DHT22;34586;53.616;10.032;2022-11-15T17:42:09;9.80;99.90
10873;DHT22;34586;53.616;10.032;2022-11-15T17:44:34;9.90;99.90
10873;DHT22;34586;53.616;10.032;2022-11-15T17:47:00;9.90;99.90
10873;DHT22;34586;53.616;10.032;2022-11-15T17:49:25;9.90;99.90
10873;DHT22;34586;53.616;10.032;2022-11-15T17:51:51;9.90;99.90
10873;DHT22;34586;53.616;10.032;2022-11-15T17:54:17;9.90;99.90
10873;DHT22;34586;53.616;10.032;2022-11-15T17:56:43;10.00;99.90
10873;DHT22;34586;53.616;10.032;2022-11-15T17:59:08;10.00;99.90
10873;DHT22;34586;53.616;10.032;2022-11-15T18:01:36;10.00;99.90
10873;DHT22;34586;53.616;10.032;2022-11-15T18:04:04;10.10;99.90